sensor_id;sensor_type;location;lat;lon;timestamp;P1;durP1;ratioP1;P2;durP2;ratioP2
8187;SDS011;4135;49.184;9.722;2022-07-10T00:01:16;2.80;;;2.33;;
8187;SDS011;4135;49.184;9.722;2022-07-10T00:03:45;2.67;;;2.47;;
8187;SDS011;4135;49.184;9.722;2022-07-10T00:06:15;3.28;;;2.42;;
8187;SDS011;4135;49.184;9.722;2022-07-10T00:08:45;5.53;;;2.55;;
8187;SDS011;4135;49.184;9.722;2022-07-10T00:11:15;2.92;;;2.40;;
8187;SDS011;4135;49.184;9.722;2022-07-10T00:13:44;4.28;;;2.67;;
8187;SDS011;4135;49.184;9.722;2022-07-10T00:16:14;5.75;;;2.38;;
8187;SDS011;4135;49.184;9.722;2022-07-10T00:18:43;3.13;;;2.60;;
8187;SDS011;4135;49.184;9.722;2022-07-10T00:21:13;4.53;;;2.33;;
8187;SDS011;4135;49.184;9.722;2022-07-10T00:23:42;2.38;;;2.17;;
8187;SDS011;4135;49.184;9.722;2022-07-10T00:26:12;3.53;;;2.10;;
8187;SDS011;4135;49.184;9.722;2022-07-10T00:28:41;2.55;;;2.35;;
8187;SDS011;4135;49.184;9.722;2022-07-10T00:31:11;3.83;;;2.55;;
8187;SDS011;4135;49.184;9.722;2022-07-10T00:33:40;3.35;;;2.60;;
8187;SDS011;4135;49.184;9.722;2022-07-10T00:36:10;3.58;;;2.53;;
8187;SDS011;4135;49.184;9.722;2022-07-10T00:38:39;2.40;;;2.05;;
8187;SDS011;4135;49.184;9.722;2022-07-10T00:41:09;2.40;;;2.25;;
8187;SDS011;4135;49.184;9.722;2022-07-10T00:43:58;2.97;;;2.60;;
8187;SDS011;4135;49.184;9.722;2022-07-10T00:46:30;3.33;;;2.33;;
8187;SDS011;4135;49.184;9.722;2022-07-10T00:49:00;3.42;;;2.47;;
8187;SDS011;4135;49.184;9.722;2022-07-10T00:51:29;2.90;;;2.20;;
8187;SDS011;4135;49.184;9.722;2022-07-10T00:53:59;3.28;;;2.45;;
8187;SDS011;4135;49.184;9.722;2022-07-10T00:56:29;3.80;;;2.47;;
8187;SDS011;4135;49.184;9.722;2022-07-10T00:58:59;3.75;;;2.13;;
8187;SDS011;4135;49.184;9.722;2022-07-10T01:01:30;3.30;;;2.42;;
8187;SDS011;4135;49.184;9.722;2022-07-10T01:04:01;2.53;;;2.08;;
8187;SDS011;4135;49.184;9.722;2022-07-10T01:06:31;3.75;;;2.65;;
8187;SDS011;4135;49.184;9.722;2022-07-10T01:09:01;3.35;;;2.80;;
8187;SDS011;4135;49.184;9.722;2022-07-10T01:11:32;3.45;;;2.47;;
8187;SDS011;4135;49.184;9.722;2022-07-10T01:14:03;4.25;;;2.90;;
8187;SDS011;4135;49.184;9.722;2022-07-10T01:16:33;4.95;;;2.92;;
8187;SDS011;4135;49.184;9.722;2022-07-10T01:19:03;4.35;;;3.10;;
8187;SDS011;4135;49.184;9.722;2022-07-10T01:21:33;2.38;;;2.17;;
8187;SDS011;4135;49.184;9.722;2022-07-10T01:24:05;3.08;;;2.83;;
8187;SDS011;4135;49.184;9.722;2022-07-10T01:26:36;4.32;;;3.03;;
8187;SDS011;4135;49.184;9.722;2022-07-10T01:29:11;2.50;;;2.30;;
8187;SDS011;4135;49.184;9.722;2022-07-10T01:31:40;5.68;;;3.35;;
8187;SDS011;4135;49.184;9.722;2022-07-10T01:34:10;3.03;;;2.20;;
8187;SDS011;4135;49.184;9.722;2022-07-10T01:36:39;3.42;;;2.50;;
8187;SDS011;4135;49.184;9.722;2022-07-10T01:39:10;3.75;;;3.03;;
8187;SDS011;4135;49.184;9.722;2022-07-10T01:41:39;4.93;;;3.13;;
8187;SDS011;4135;49.184;9.722;2022-07-10T01:44:08;3.22;;;2.67;;
8187;SDS011;4135;49.184;9.722;2022-07-10T01:46:45;3.42;;;2.72;;
8187;SDS011;4135;49.184;9.722;2022-07-10T01:49:15;3.47;;;2.42;;
8187;SDS011;4135;49.184;9.722;2022-07-10T01:51:45;3.95;;;2.58;;
8187;SDS011;4135;49.184;9.722;2022-07-10T01:54:14;4.45;;;2.95;;
8187;SDS011;4135;49.184;9.722;2022-07-10T01:56:44;2.78;;;2.55;;
8187;SDS011;4135;49.184;9.722;2022-07-10T01:59:13;5.50;;;3.25;;
8187;SDS011;4135;49.184;9.722;2022-07-10T02:01:42;3.55;;;2.72;;
8187;SDS011;4135;49.184;9.722;2022-07-10T02:04:12;3.00;;;2.63;;
8187;SDS011;4135;49.184;9.722;2022-07-10T02:07:00;2.35;;;2.17;;
8187;SDS011;4135;49.184;9.722;2022-07-10T02:09:30;3.03;;;2.58;;
8187;SDS011;4135;49.184;9.722;2022-07-10T02:11:59;3.13;;;2.67;;
8187;SDS011;4135;49.184;9.722;2022-07-10T02:14:29;4.13;;;2.60;;
8187;SDS011;4135;49.184;9.722;2022-07-10T02:16:58;4.88;;;2.95;;
8187;SDS011;4135;49.184;9.722;2022-07-10T02:19:28;7.03;;;2.83;;
8187;SDS011;4135;49.184;9.722;2022-07-10T02:21:57;3.70;;;2.40;;
8187;SDS011;4135;49.184;9.722;2022-07-10T02:24:27;3.05;;;2.78;;
8187;SDS011;4135;49.184;9.722;2022-07-10T02:26:57;3.38;;;2.63;;
8187;SDS011;4135;49.184;9.722;2022-07-10T02:29:26;4.15;;;2.50;;
8187;SDS011;4135;49.184;9.722;2022-07-10T02:31:56;2.50;;;2.00;;
8187;SDS011;4135;49.184;9.722;2022-07-10T02:34:25;2.65;;;2.47;;
8187;SDS011;4135;49.184;9.722;2022-07-10T02:36:55;3.33;;;2.42;;
8187;SDS011;4135;49.184;9.722;2022-07-10T02:39:24;2.50;;;2.30;;
8187;SDS011;4135;49.184;9.722;2022-07-10T02:41:54;3.75;;;2.67;;
8187;SDS011;4135;49.184;9.722;2022-07-10T02:44:23;3.05;;;2.42;;
8187;SDS011;4135;49.184;9.722;2022-07-10T02:46:53;3.92;;;2.33;;
8187;SDS011;4135;49.184;9.722;2022-07-10T02:49:22;3.42;;;2.72;;
8187;SDS011;4135;49.184;9.722;2022-07-10T02:51:52;3.75;;;2.30;;
8187;SDS011;4135;49.184;9.722;2022-07-10T02:54:21;4.15;;;2.25;;
8187;SDS011;4135;49.184;9.722;2022-07-10T02:56:51;4.47;;;2.88;;
8187;SDS011;4135;49.184;9.722;2022-07-10T02:59:21;3.47;;;2.60;;
8187;SDS011;4135;49.184;9.722;2022-07-10T03:01:50;3.85;;;2.60;;
8187;SDS011;4135;49.184;9.722;2022-07-10T03:04:20;4.80;;;2.53;;
8187;SDS011;4135;49.184;9.722;2022-07-10T03:06:49;3.42;;;2.40;;
8187;SDS011;4135;49.184;9.722;2022-07-10T03:09:19;5.53;;;3.20;;
8187;SDS011;4135;49.184;9.722;2022-07-10T03:11:48;2.45;;;2.00;;
8187;SDS011;4135;49.184;9.722;2022-07-10T03:14:18;2.90;;;2.25;;
8187;SDS011;4135;49.184;9.722;2022-07-10T03:16:47;4.15;;;2.50;;
8187;SDS011;4135;49.184;9.722;2022-07-10T03:19:17;5.28;;;2.63;;
8187;SDS011;4135;49.184;9.722;2022-07-10T03:21:47;3.53;;;2.28;;
8187;SDS011;4135;49.184;9.722;2022-07-10T03:24:16;4.07;;;2.03;;
8187;SDS011;4135;49.184;9.722;2022-07-10T03:26:46;6.72;;;2.60;;
8187;SDS011;4135;49.184;9.722;2022-07-10T03:29:16;3.30;;;2.17;;
8187;SDS011;4135;49.184;9.722;2022-07-10T03:31:45;4.60;;;2.80;;
8187;SDS011;4135;49.184;9.722;2022-07-10T03:34:15;3.28;;;1.92;;
8187;SDS011;4135;49.184;9.722;2022-07-10T03:36:44;5.43;;;2.83;;
8187;SDS011;4135;49.184;9.722;2022-07-10T03:39:14;5.32;;;2.45;;
8187;SDS011;4135;49.184;9.722;2022-07-10T03:41:43;4.85;;;2.42;;
8187;SDS011;4135;49.184;9.722;2022-07-10T03:44:13;3.20;;;2.40;;
8187;SDS011;4135;49.184;9.722;2022-07-10T03:46:42;3.03;;;2.33;;
8187;SDS011;4135;49.184;9.722;2022-07-10T03:49:12;4.68;;;2.13;;
8187;SDS011;4135;49.184;9.722;2022-07-10T03:51:41;3.05;;;2.05;;
8187;SDS011;4135;49.184;9.722;2022-07-10T03:54:11;4.32;;;2.33;;
8187;SDS011;4135;49.184;9.722;2022-07-10T03:56:41;2.42;;;2.08;;
8187;SDS011;4135;49.184;9.722;2022-07-10T03:59:29;2.17;;;2.03;;
8187;SDS011;4135;49.184;9.722;2022-07-10T04:01:59;4.38;;;2.22;;
8187;SDS011;4135;49.184;9.722;2022-07-10T04:04:28;2.55;;;2.22;;
8187;SDS011;4135;49.184;9.722;2022-07-10T04:06:58;4.30;;;2.03;;
8187;SDS011;4135;49.184;9.722;2022-07-10T04:09:27;2.17;;;1.70;;
8187;SDS011;4135;49.184;9.722;2022-07-10T04:11:57;4.40;;;1.85;;
8187;SDS011;4135;49.184;9.722;2022-07-10T04:14:26;4.07;;;2.33;;
8187;SDS011;4135;49.184;9.722;2022-07-10T04:16:56;4.25;;;2.15;;
8187;SDS011;4135;49.184;9.722;2022-07-10T04:19:25;5.80;;;2.70;;
8187;SDS011;4135;49.184;9.722;2022-07-10T04:21:55;4.25;;;2.28;;
8187;SDS011;4135;49.184;9.722;2022-07-10T04:24:24;3.20;;;2.30;;
8187;SDS011;4135;49.184;9.722;2022-07-10T04:26:54;3.40;;;2.15;;
8187;SDS011;4135;49.184;9.722;2022-07-10T04:29:23;12.30;;;2.33;;
8187;SDS011;4135;49.184;9.722;2022-07-10T04:31:53;3.83;;;2.35;;
8187;SDS011;4135;49.184;9.722;2022-07-10T04:34:23;4.72;;;1.83;;
8187;SDS011;4135;49.184;9.722;2022-07-10T04:36:53;5.05;;;1.73;;
8187;SDS011;4135;49.184;9.722;2022-07-10T04:39:23;3.03;;;1.70;;
8187;SDS011;4135;49.184;9.722;2022-07-10T04:41:52;3.85;;;1.80;;
8187;SDS011;4135;49.184;9.722;2022-07-10T04:44:22;3.47;;;1.90;;
8187;SDS011;4135;49.184;9.722;2022-07-10T04:46:52;4.30;;;1.73;;
8187;SDS011;4135;49.184;9.722;2022-07-10T04:49:22;3.97;;;1.92;;
8187;SDS011;4135;49.184;9.722;2022-07-10T04:51:51;2.90;;;1.70;;
8187;SDS011;4135;49.184;9.722;2022-07-10T04:54:21;2.75;;;1.38;;
8187;SDS011;4135;49.184;9.722;2022-07-10T04:56:52;2.00;;;1.17;;
8187;SDS011;4135;49.184;9.722;2022-07-10T04:59:21;2.83;;;1.67;;
8187;SDS011;4135;49.184;9.722;2022-07-10T05:01:51;3.30;;;1.95;;
8187;SDS011;4135;49.184;9.722;2022-07-10T05:04:20;2.42;;;1.27;;
8187;SDS011;4135;49.184;9.722;2022-07-10T05:06:50;4.20;;;1.55;;
8187;SDS011;4135;49.184;9.722;2022-07-10T05:09:19;1.85;;;1.17;;
8187;SDS011;4135;49.184;9.722;2022-07-10T05:11:49;1.80;;;1.40;;
8187;SDS011;4135;49.184;9.722;2022-07-10T05:14:18;3.63;;;1.40;;
8187;SDS011;4135;49.184;9.722;2022-07-10T05:16:48;4.25;;;1.58;;
8187;SDS011;4135;49.184;9.722;2022-07-10T05:19:17;2.83;;;1.45;;
8187;SDS011;4135;49.184;9.722;2022-07-10T05:21:47;2.90;;;1.35;;
8187;SDS011;4135;49.184;9.722;2022-07-10T05:24:16;1.80;;;1.23;;
8187;SDS011;4135;49.184;9.722;2022-07-10T05:26:46;2.70;;;1.20;;
8187;SDS011;4135;49.184;9.722;2022-07-10T05:29:16;2.03;;;0.93;;
8187;SDS011;4135;49.184;9.722;2022-07-10T05:31:45;4.05;;;1.25;;
8187;SDS011;4135;49.184;9.722;2022-07-10T05:34:14;1.95;;;1.17;;
8187;SDS011;4135;49.184;9.722;2022-07-10T05:36:44;3.35;;;1.13;;
8187;SDS011;4135;49.184;9.722;2022-07-10T05:39:13;2.75;;;1.40;;
8187;SDS011;4135;49.184;9.722;2022-07-10T05:41:43;3.35;;;0.85;;
8187;SDS011;4135;49.184;9.722;2022-07-10T05:44:12;3.70;;;1.50;;
8187;SDS011;4135;49.184;9.722;2022-07-10T05:46:42;2.72;;;1.08;;
8187;SDS011;4135;49.184;9.722;2022-07-10T05:49:11;2.92;;;0.93;;
8187;SDS011;4135;49.184;9.722;2022-07-10T05:51:41;4.82;;;1.42;;
8187;SDS011;4135;49.184;9.722;2022-07-10T05:54:11;3.50;;;1.23;;
8187;SDS011;4135;49.184;9.722;2022-07-10T05:56:41;2.63;;;0.98;;
8187;SDS011;4135;49.184;9.722;2022-07-10T05:59:11;2.15;;;0.77;;
8187;SDS011;4135;49.184;9.722;2022-07-10T06:01:40;2.70;;;1.15;;
8187;SDS011;4135;49.184;9.722;2022-07-10T06:04:09;2.15;;;0.95;;
8187;SDS011;4135;49.184;9.722;2022-07-10T06:06:39;1.05;;;0.65;;
8187;SDS011;4135;49.184;9.722;2022-07-10T06:09:09;2.30;;;0.77;;
8187;SDS011;4135;49.184;9.722;2022-07-10T06:11:38;4.45;;;1.73;;
8187;SDS011;4135;49.184;9.722;2022-07-10T06:14:10;3.33;;;0.95;;
8187;SDS011;4135;49.184;9.722;2022-07-10T06:16:40;1.77;;;0.93;;
8187;SDS011;4135;49.184;9.722;2022-07-10T06:19:10;2.03;;;1.10;;
8187;SDS011;4135;49.184;9.722;2022-07-10T06:21:39;2.95;;;1.48;;
8187;SDS011;4135;49.184;9.722;2022-07-10T06:24:09;2.85;;;1.00;;
8187;SDS011;4135;49.184;9.722;2022-07-10T06:26:39;3.28;;;1.10;;
8187;SDS011;4135;49.184;9.722;2022-07-10T06:29:08;2.70;;;0.73;;
8187;SDS011;4135;49.184;9.722;2022-07-10T06:31:38;2.17;;;1.20;;
8187;SDS011;4135;49.184;9.722;2022-07-10T06:34:07;1.92;;;1.10;;
8187;SDS011;4135;49.184;9.722;2022-07-10T06:36:37;2.03;;;0.75;;
8187;SDS011;4135;49.184;9.722;2022-07-10T06:39:06;1.90;;;0.80;;
8187;SDS011;4135;49.184;9.722;2022-07-10T06:41:35;3.22;;;0.77;;
8187;SDS011;4135;49.184;9.722;2022-07-10T06:44:05;2.88;;;1.13;;
8187;SDS011;4135;49.184;9.722;2022-07-10T06:46:35;2.85;;;1.10;;
8187;SDS011;4135;49.184;9.722;2022-07-10T06:49:04;1.95;;;0.90;;
8187;SDS011;4135;49.184;9.722;2022-07-10T06:51:34;4.45;;;1.02;;
8187;SDS011;4135;49.184;9.722;2022-07-10T06:54:03;4.75;;;1.08;;
8187;SDS011;4135;49.184;9.722;2022-07-10T06:56:33;4.03;;;0.77;;
8187;SDS011;4135;49.184;9.722;2022-07-10T06:59:02;2.38;;;1.15;;
8187;SDS011;4135;49.184;9.722;2022-07-10T07:01:32;2.38;;;0.88;;
8187;SDS011;4135;49.184;9.722;2022-07-10T07:04:01;3.78;;;0.85;;
8187;SDS011;4135;49.184;9.722;2022-07-10T07:06:31;3.08;;;0.77;;
8187;SDS011;4135;49.184;9.722;2022-07-10T07:09:01;1.85;;;0.68;;
8187;SDS011;4135;49.184;9.722;2022-07-10T07:11:30;2.17;;;1.13;;
8187;SDS011;4135;49.184;9.722;2022-07-10T07:13:59;2.85;;;0.73;;
8187;SDS011;4135;49.184;9.722;2022-07-10T07:16:29;2.10;;;0.60;;
8187;SDS011;4135;49.184;9.722;2022-07-10T07:19:11;2.00;;;0.77;;
8187;SDS011;4135;49.184;9.722;2022-07-10T07:21:46;2.45;;;0.80;;
8187;SDS011;4135;49.184;9.722;2022-07-10T07:24:34;1.75;;;0.63;;
8187;SDS011;4135;49.184;9.722;2022-07-10T07:27:04;1.38;;;0.88;;
8187;SDS011;4135;49.184;9.722;2022-07-10T07:29:33;2.17;;;0.98;;
8187;SDS011;4135;49.184;9.722;2022-07-10T07:32:03;1.20;;;0.60;;
8187;SDS011;4135;49.184;9.722;2022-07-10T07:34:33;2.13;;;0.70;;
8187;SDS011;4135;49.184;9.722;2022-07-10T07:37:02;2.75;;;0.60;;
8187;SDS011;4135;49.184;9.722;2022-07-10T07:39:32;2.72;;;0.98;;
8187;SDS011;4135;49.184;9.722;2022-07-10T07:42:02;0.70;;;0.63;;
8187;SDS011;4135;49.184;9.722;2022-07-10T07:44:32;1.75;;;0.80;;
8187;SDS011;4135;49.184;9.722;2022-07-10T07:47:02;2.17;;;0.70;;
8187;SDS011;4135;49.184;9.722;2022-07-10T07:49:31;2.25;;;1.05;;
8187;SDS011;4135;49.184;9.722;2022-07-10T07:52:01;2.03;;;0.77;;
8187;SDS011;4135;49.184;9.722;2022-07-10T07:54:31;1.92;;;0.63;;
8187;SDS011;4135;49.184;9.722;2022-07-10T07:57:00;0.63;;;0.20;;
8187;SDS011;4135;49.184;9.722;2022-07-10T07:59:30;2.05;;;0.70;;
8187;SDS011;4135;49.184;9.722;2022-07-10T08:01:59;1.38;;;0.57;;
8187;SDS011;4135;49.184;9.722;2022-07-10T08:04:29;1.50;;;0.70;;
8187;SDS011;4135;49.184;9.722;2022-07-10T08:06:58;2.72;;;0.77;;
8187;SDS011;4135;49.184;9.722;2022-07-10T08:09:30;0.95;;;0.50;;
8187;SDS011;4135;49.184;9.722;2022-07-10T08:11:59;3.72;;;0.52;;
8187;SDS011;4135;49.184;9.722;2022-07-10T08:14:29;1.50;;;0.82;;
8187;SDS011;4135;49.184;9.722;2022-07-10T08:16:59;1.27;;;0.40;;
8187;SDS011;4135;49.184;9.722;2022-07-10T08:19:28;2.03;;;0.65;;
8187;SDS011;4135;49.184;9.722;2022-07-10T08:21:58;1.13;;;0.50;;
8187;SDS011;4135;49.184;9.722;2022-07-10T08:24:27;1.45;;;0.70;;
8187;SDS011;4135;49.184;9.722;2022-07-10T08:26:57;1.23;;;0.60;;
8187;SDS011;4135;49.184;9.722;2022-07-10T08:29:26;1.90;;;0.70;;
8187;SDS011;4135;49.184;9.722;2022-07-10T08:31:56;5.63;;;0.93;;
8187;SDS011;4135;49.184;9.722;2022-07-10T08:34:25;2.58;;;0.40;;
8187;SDS011;4135;49.184;9.722;2022-07-10T08:36:56;1.67;;;0.40;;
8187;SDS011;4135;49.184;9.722;2022-07-10T08:39:26;2.03;;;0.60;;
8187;SDS011;4135;49.184;9.722;2022-07-10T08:41:56;1.27;;;0.50;;
8187;SDS011;4135;49.184;9.722;2022-07-10T08:44:25;1.02;;;0.50;;
8187;SDS011;4135;49.184;9.722;2022-07-10T08:46:56;1.50;;;0.77;;
8187;SDS011;4135;49.184;9.722;2022-07-10T08:49:30;2.65;;;0.77;;
8187;SDS011;4135;49.184;9.722;2022-07-10T08:54:34;1.90;;;0.43;;
8187;SDS011;4135;49.184;9.722;2022-07-10T08:57:06;3.17;;;0.82;;
8187;SDS011;4135;49.184;9.722;2022-07-10T08:59:36;2.15;;;0.90;;
8187;SDS011;4135;49.184;9.722;2022-07-10T09:02:06;1.40;;;0.70;;
8187;SDS011;4135;49.184;9.722;2022-07-10T09:04:36;2.13;;;0.75;;
8187;SDS011;4135;49.184;9.722;2022-07-10T09:07:05;3.22;;;0.77;;
8187;SDS011;4135;49.184;9.722;2022-07-10T09:09:51;2.45;;;0.55;;
8187;SDS011;4135;49.184;9.722;2022-07-10T09:12:22;1.92;;;0.50;;
8187;SDS011;4135;49.184;9.722;2022-07-10T09:14:53;0.57;;;0.25;;
8187;SDS011;4135;49.184;9.722;2022-07-10T09:17:22;5.05;;;0.73;;
8187;SDS011;4135;49.184;9.722;2022-07-10T09:19:52;2.75;;;0.80;;
8187;SDS011;4135;49.184;9.722;2022-07-10T09:22:22;3.80;;;0.70;;
8187;SDS011;4135;49.184;9.722;2022-07-10T09:24:51;2.47;;;0.40;;
8187;SDS011;4135;49.184;9.722;2022-07-10T09:27:21;3.55;;;0.90;;
8187;SDS011;4135;49.184;9.722;2022-07-10T09:29:51;5.40;;;0.80;;
8187;SDS011;4135;49.184;9.722;2022-07-10T09:32:24;2.15;;;0.68;;
8187;SDS011;4135;49.184;9.722;2022-07-10T09:34:53;2.40;;;0.50;;
8187;SDS011;4135;49.184;9.722;2022-07-10T09:37:42;2.03;;;0.73;;
8187;SDS011;4135;49.184;9.722;2022-07-10T09:40:12;4.43;;;0.88;;
8187;SDS011;4135;49.184;9.722;2022-07-10T09:42:42;4.28;;;0.60;;
8187;SDS011;4135;49.184;9.722;2022-07-10T09:45:13;2.45;;;0.75;;
8187;SDS011;4135;49.184;9.722;2022-07-10T09:47:47;1.80;;;0.60;;
8187;SDS011;4135;49.184;9.722;2022-07-10T09:52:57;1.08;;;0.40;;
8187;SDS011;4135;49.184;9.722;2022-07-10T09:55:29;2.10;;;0.93;;
8187;SDS011;4135;49.184;9.722;2022-07-10T09:58:04;1.67;;;0.50;;
8187;SDS011;4135;49.184;9.722;2022-07-10T10:00:36;3.05;;;0.68;;
8187;SDS011;4135;49.184;9.722;2022-07-10T10:03:08;1.38;;;0.38;;
8187;SDS011;4135;49.184;9.722;2022-07-10T10:05:57;1.52;;;0.73;;
8187;SDS011;4135;49.184;9.722;2022-07-10T10:09:03;2.40;;;0.57;;
8187;SDS011;4135;49.184;9.722;2022-07-10T10:11:35;0.88;;;0.40;;
8187;SDS011;4135;49.184;9.722;2022-07-10T10:14:07;0.80;;;0.30;;
8187;SDS011;4135;49.184;9.722;2022-07-10T10:16:37;0.93;;;0.55;;
8187;SDS011;4135;49.184;9.722;2022-07-10T10:19:08;2.83;;;1.15;;
8187;SDS011;4135;49.184;9.722;2022-07-10T10:22:14;4.07;;;0.65;;
8187;SDS011;4135;49.184;9.722;2022-07-10T10:24:46;1.63;;;0.45;;
8187;SDS011;4135;49.184;9.722;2022-07-10T10:27:17;5.03;;;0.50;;
8187;SDS011;4135;49.184;9.722;2022-07-10T10:29:49;1.20;;;0.40;;
8187;SDS011;4135;49.184;9.722;2022-07-10T10:32:20;2.65;;;0.65;;
8187;SDS011;4135;49.184;9.722;2022-07-10T10:34:50;1.55;;;0.60;;
8187;SDS011;4135;49.184;9.722;2022-07-10T10:37:39;6.25;;;1.08;;
8187;SDS011;4135;49.184;9.722;2022-07-10T10:40:29;2.53;;;0.68;;
8187;SDS011;4135;49.184;9.722;2022-07-10T10:43:17;3.75;;;0.98;;
8187;SDS011;4135;49.184;9.722;2022-07-10T10:45:48;5.15;;;1.27;;
8187;SDS011;4135;49.184;9.722;2022-07-10T10:48:18;3.30;;;0.60;;
8187;SDS011;4135;49.184;9.722;2022-07-10T10:50:55;3.50;;;0.90;;
8187;SDS011;4135;49.184;9.722;2022-07-10T10:53:28;2.50;;;0.82;;
8187;SDS011;4135;49.184;9.722;2022-07-10T10:58:36;2.13;;;0.50;;
8187;SDS011;4135;49.184;9.722;2022-07-10T11:09:27;2.58;;;0.63;;
8187;SDS011;4135;49.184;9.722;2022-07-10T11:12:06;5.63;;;0.63;;
8187;SDS011;4135;49.184;9.722;2022-07-10T11:14:45;4.20;;;0.45;;
8187;SDS011;4135;49.184;9.722;2022-07-10T11:17:16;1.60;;;0.40;;
8187;SDS011;4135;49.184;9.722;2022-07-10T11:19:46;2.90;;;0.60;;
8187;SDS011;4135;49.184;9.722;2022-07-10T11:22:25;6.18;;;0.80;;
8187;SDS011;4135;49.184;9.722;2022-07-10T11:27:55;3.25;;;0.77;;
8187;SDS011;4135;49.184;9.722;2022-07-10T11:33:13;3.20;;;0.50;;
8187;SDS011;4135;49.184;9.722;2022-07-10T11:35:44;1.40;;;0.50;;
8187;SDS011;4135;49.184;9.722;2022-07-10T11:38:18;2.95;;;0.80;;
8187;SDS011;4135;49.184;9.722;2022-07-10T11:40:49;2.05;;;0.52;;
8187;SDS011;4135;49.184;9.722;2022-07-10T11:43:19;1.20;;;0.50;;
8187;SDS011;4135;49.184;9.722;2022-07-10T11:45:52;1.48;;;0.30;;
8187;SDS011;4135;49.184;9.722;2022-07-10T11:48:28;2.45;;;0.50;;
8187;SDS011;4135;49.184;9.722;2022-07-10T11:50:57;1.25;;;0.50;;
8187;SDS011;4135;49.184;9.722;2022-07-10T11:53:27;0.80;;;0.40;;
8187;SDS011;4135;49.184;9.722;2022-07-10T11:55:57;5.57;;;0.80;;
8187;SDS011;4135;49.184;9.722;2022-07-10T11:58:26;2.78;;;0.77;;
8187;SDS011;4135;49.184;9.722;2022-07-10T12:00:57;2.15;;;0.82;;
8187;SDS011;4135;49.184;9.722;2022-07-10T12:03:28;1.52;;;0.73;;
8187;SDS011;4135;49.184;9.722;2022-07-10T12:06:02;1.63;;;0.52;;
8187;SDS011;4135;49.184;9.722;2022-07-10T12:08:42;2.25;;;0.52;;
8187;SDS011;4135;49.184;9.722;2022-07-10T12:11:16;1.63;;;0.50;;
8187;SDS011;4135;49.184;9.722;2022-07-10T12:13:49;6.15;;;0.80;;
8187;SDS011;4135;49.184;9.722;2022-07-10T12:16:20;5.03;;;0.60;;
8187;SDS011;4135;49.184;9.722;2022-07-10T12:18:51;4.53;;;0.68;;
8187;SDS011;4135;49.184;9.722;2022-07-10T12:21:20;1.40;;;0.57;;
8187;SDS011;4135;49.184;9.722;2022-07-10T12:23:50;3.17;;;0.50;;
8187;SDS011;4135;49.184;9.722;2022-07-10T12:26:20;1.23;;;0.40;;
8187;SDS011;4135;49.184;9.722;2022-07-10T12:28:50;1.08;;;0.57;;
8187;SDS011;4135;49.184;9.722;2022-07-10T12:31:24;2.15;;;0.50;;
8187;SDS011;4135;49.184;9.722;2022-07-10T12:33:58;3.75;;;0.60;;
8187;SDS011;4135;49.184;9.722;2022-07-10T12:36:41;2.53;;;0.50;;
8187;SDS011;4135;49.184;9.722;2022-07-10T12:39:21;0.63;;;0.35;;
8187;SDS011;4135;49.184;9.722;2022-07-10T12:41:56;5.40;;;0.80;;
8187;SDS011;4135;49.184;9.722;2022-07-10T12:44:34;4.80;;;0.80;;
8187;SDS011;4135;49.184;9.722;2022-07-10T12:47:11;5.80;;;1.08;;
8187;SDS011;4135;49.184;9.722;2022-07-10T12:49:58;0.93;;;0.40;;
8187;SDS011;4135;49.184;9.722;2022-07-10T12:52:34;6.05;;;0.57;;
8187;SDS011;4135;49.184;9.722;2022-07-10T13:00:20;1.48;;;0.30;;
8187;SDS011;4135;49.184;9.722;2022-07-10T13:02:57;1.67;;;0.80;;
8187;SDS011;4135;49.184;9.722;2022-07-10T13:05:38;0.90;;;0.30;;
8187;SDS011;4135;49.184;9.722;2022-07-10T13:10:39;1.67;;;0.63;;
8187;SDS011;4135;49.184;9.722;2022-07-10T13:13:10;1.55;;;0.65;;
8187;SDS011;4135;49.184;9.722;2022-07-10T13:15:40;1.60;;;0.50;;
8187;SDS011;4135;49.184;9.722;2022-07-10T13:18:16;0.88;;;0.30;;
8187;SDS011;4135;49.184;9.722;2022-07-10T13:20:51;2.38;;;0.60;;
8187;SDS011;4135;49.184;9.722;2022-07-10T13:23:21;1.20;;;0.32;;
8187;SDS011;4135;49.184;9.722;2022-07-10T13:25:53;2.70;;;0.70;;
8187;SDS011;4135;49.184;9.722;2022-07-10T13:28:23;3.55;;;0.73;;
8187;SDS011;4135;49.184;9.722;2022-07-10T13:30:53;2.35;;;0.55;;
8187;SDS011;4135;49.184;9.722;2022-07-10T13:33:23;2.22;;;0.45;;
8187;SDS011;4135;49.184;9.722;2022-07-10T13:35:53;1.33;;;0.38;;
8187;SDS011;4135;49.184;9.722;2022-07-10T13:38:23;1.88;;;0.40;;
8187;SDS011;4135;49.184;9.722;2022-07-10T13:40:54;2.08;;;0.57;;
8187;SDS011;4135;49.184;9.722;2022-07-10T13:43:24;1.02;;;0.35;;
8187;SDS011;4135;49.184;9.722;2022-07-10T13:45:58;2.15;;;0.85;;
8187;SDS011;4135;49.184;9.722;2022-07-10T13:48:28;2.78;;;0.45;;
8187;SDS011;4135;49.184;9.722;2022-07-10T13:50:58;1.30;;;0.40;;
8187;SDS011;4135;49.184;9.722;2022-07-10T13:53:27;1.52;;;0.32;;
8187;SDS011;4135;49.184;9.722;2022-07-10T13:55:57;0.47;;;0.15;;
8187;SDS011;4135;49.184;9.722;2022-07-10T13:58:28;1.80;;;0.38;;
8187;SDS011;4135;49.184;9.722;2022-07-10T14:00:57;3.30;;;0.45;;
8187;SDS011;4135;49.184;9.722;2022-07-10T14:03:28;1.13;;;0.45;;
8187;SDS011;4135;49.184;9.722;2022-07-10T14:05:58;0.85;;;0.30;;
8187;SDS011;4135;49.184;9.722;2022-07-10T14:08:27;1.55;;;0.60;;
8187;SDS011;4135;49.184;9.722;2022-07-10T14:10:57;1.48;;;0.35;;
8187;SDS011;4135;49.184;9.722;2022-07-10T14:13:27;1.25;;;0.45;;
8187;SDS011;4135;49.184;9.722;2022-07-10T14:15:56;0.40;;;0.20;;
8187;SDS011;4135;49.184;9.722;2022-07-10T14:18:26;2.20;;;0.60;;
8187;SDS011;4135;49.184;9.722;2022-07-10T14:21:07;2.25;;;0.43;;
8187;SDS011;4135;49.184;9.722;2022-07-10T14:23:37;3.50;;;0.70;;
8187;SDS011;4135;49.184;9.722;2022-07-10T14:26:11;1.42;;;0.43;;
8187;SDS011;4135;49.184;9.722;2022-07-10T14:28:41;3.63;;;0.55;;
8187;SDS011;4135;49.184;9.722;2022-07-10T14:31:11;2.72;;;0.60;;
8187;SDS011;4135;49.184;9.722;2022-07-10T14:33:41;6.18;;;0.80;;
8187;SDS011;4135;49.184;9.722;2022-07-10T14:36:10;0.98;;;0.45;;
8187;SDS011;4135;49.184;9.722;2022-07-10T14:38:40;4.13;;;0.70;;
8187;SDS011;4135;49.184;9.722;2022-07-10T14:41:09;2.80;;;0.32;;
8187;SDS011;4135;49.184;9.722;2022-07-10T14:43:39;1.63;;;0.50;;
8187;SDS011;4135;49.184;9.722;2022-07-10T14:46:08;4.75;;;1.15;;
8187;SDS011;4135;49.184;9.722;2022-07-10T14:48:38;2.95;;;1.02;;
8187;SDS011;4135;49.184;9.722;2022-07-10T14:51:07;7.20;;;0.95;;
8187;SDS011;4135;49.184;9.722;2022-07-10T14:53:37;4.40;;;1.00;;
8187;SDS011;4135;49.184;9.722;2022-07-10T14:56:10;6.68;;;0.80;;
8187;SDS011;4135;49.184;9.722;2022-07-10T14:58:40;3.80;;;0.70;;
8187;SDS011;4135;49.184;9.722;2022-07-10T15:01:10;2.65;;;0.32;;
8187;SDS011;4135;49.184;9.722;2022-07-10T15:03:39;1.40;;;0.50;;
8187;SDS011;4135;49.184;9.722;2022-07-10T15:06:09;3.85;;;0.95;;
8187;SDS011;4135;49.184;9.722;2022-07-10T15:08:40;2.08;;;0.85;;
8187;SDS011;4135;49.184;9.722;2022-07-10T15:11:09;2.28;;;0.40;;
8187;SDS011;4135;49.184;9.722;2022-07-10T15:13:39;0.82;;;0.40;;
8187;SDS011;4135;49.184;9.722;2022-07-10T15:16:08;1.88;;;0.80;;
8187;SDS011;4135;49.184;9.722;2022-07-10T15:18:38;2.08;;;0.90;;
8187;SDS011;4135;49.184;9.722;2022-07-10T15:21:07;1.17;;;0.77;;
8187;SDS011;4135;49.184;9.722;2022-07-10T15:23:37;1.75;;;0.35;;
8187;SDS011;4135;49.184;9.722;2022-07-10T15:26:07;5.72;;;0.82;;
8187;SDS011;4135;49.184;9.722;2022-07-10T15:28:36;0.88;;;0.47;;
8187;SDS011;4135;49.184;9.722;2022-07-10T15:31:06;1.55;;;0.50;;
8187;SDS011;4135;49.184;9.722;2022-07-10T15:33:35;1.30;;;0.70;;
8187;SDS011;4135;49.184;9.722;2022-07-10T15:36:06;3.05;;;0.57;;
8187;SDS011;4135;49.184;9.722;2022-07-10T15:38:36;1.17;;;0.32;;
8187;SDS011;4135;49.184;9.722;2022-07-10T15:41:05;3.00;;;0.50;;
8187;SDS011;4135;49.184;9.722;2022-07-10T15:43:35;2.38;;;0.32;;
8187;SDS011;4135;49.184;9.722;2022-07-10T15:46:05;1.42;;;0.50;;
8187;SDS011;4135;49.184;9.722;2022-07-10T15:48:35;2.30;;;0.40;;
8187;SDS011;4135;49.184;9.722;2022-07-10T15:51:06;1.85;;;0.40;;
8187;SDS011;4135;49.184;9.722;2022-07-10T15:53:36;2.15;;;0.52;;
8187;SDS011;4135;49.184;9.722;2022-07-10T15:56:06;2.40;;;0.45;;
8187;SDS011;4135;49.184;9.722;2022-07-10T15:58:35;7.38;;;0.90;;
8187;SDS011;4135;49.184;9.722;2022-07-10T16:01:05;3.83;;;0.90;;
8187;SDS011;4135;49.184;9.722;2022-07-10T16:03:34;1.58;;;0.40;;
8187;SDS011;4135;49.184;9.722;2022-07-10T16:06:04;1.92;;;0.77;;
8187;SDS011;4135;49.184;9.722;2022-07-10T16:08:34;1.98;;;0.70;;